Airmont, New York
Current Conditions -  °F | °C
As of 9:51 PM on Saturday 22 Nov 2014 (Local Time) from KTEB Reporting Station
Broken Clouds Broken Clouds  
Wind Chill: 38°   Ceiling: 7500
Heat Index: 43°   Visibility: 10mi
Dew Point: 18°   Wind: 9mph
Humidity: 37%   Direction: 220°SW
Pressure: 30.2"   Gusts: NA
Location:  41.1112°N, 74.0777°W
Report Text: KTEB 230251Z 22008KT 10SM FEW065 BKN075 06/M08 A3020 RMK AO2 SLP227 T00611078 58009
Loading
Personal Weather Stations






























Interactive Weather Map New forecast layout! Learn more

10-Day Weather Forecast

Advertisements
Track Severe Weather on mobile